Troy, Virginia
Current Conditions -  °F | °C
As of 6:55 AM on Thursday 27 Nov 2014 (Local Time) from KGVE Reporting Station
Moderate Fog Moderate Fog  
Wind Chill: 34°   Ceiling: 300
Heat Index: 34°   Visibility: 0.5mi
Dew Point: 33°   Wind: 0mph
Humidity: 99%   Direction: NA
Pressure: 30.02"   Gusts: NA
Location:  37.99°N, 78.25°W
Report Text: KGVE 271155Z AUTO 00000KT 1/2SM FG OVC003 01/01 A3002 RMK AO1 70001 T00100008 10013 21005
Loading
Personal Weather Stations






























Interactive Weather Map New forecast layout! Learn more

10-Day Weather Forecast

Advertisements
Track Severe Weather on mobile